Main page
METAR-TAF:

METAR-TAF

Airports :

Edinburgh Airport

Edinburgh, Scotland

latitude: 55-57N, longitude: 003-21W, elevation: 41 m

Current weather observation

The report was made 37 minutes ago, at 21:20 UTC
Wind 3 kt from the West/Southwest
Temperature -1°C
Humidity 93%
Pressure 1024 hPa
Visibility 10 km or more
no clouds below 1500 m and no cumulonimbus

METAR: EGPH 112120Z 25003KT CAVOK M01/M02 Q1024

Time: 22:57 (21:57 UTC)

Forecast

The report was made 4 hours and 59 minutes ago, at 16:58 UTC
Forecast valid from 11 at 18 UTC to 12 at 18 UTC
Wind 7 kt from the North/Northeast
Visibility 10 km or more
Scattered clouds at a height of 4000 ft
Temporary
from 11 at 18 UTC to 11 at 21 UTC
Visibility: 2500 m
Broken clouds at a height of 1200 ft, Cumulonimbus.
snow showers, rain

TAF: EGPH 111658Z 1118/1218 02007KT 9999 SCT040 TEMPO 1118/1121 2500 SHSNRA BKN012CB

Weather observations and forecasts of more than 4000 airports (METAR and TAF reports).

The available stations are represented by yellow and red dots on the map.

Hover mouse over dot to see the name of the station.

Then click to see weather observations and forecasts.

To change the map : click on the green buttons with a black cross to zoom in, on the green button with a dash to zoom out, or on the green arrows for adjacent maps.


METAR-TAF: